• Join FlightAware (Why Join?)
  • Login
  • US Flag 
08:38AM EDT


 

Airport Tracker/Info


-or-


 

Live Flight TrackerFlight Track Log ✈ N913FD ✈ 10-May-2013 ✈ KMEM - KBGR

Flight Track Log - Related Links

Times and Time Zones

All times are in EDT time to prevent confusion due to time zone crossing. See the N913FD flight status page for this flight to view local times or setup timezone preferences in your user account.

Time Position Orientation Groundspeed Altitude Reporting Facility
EDT Latitude Longitude Course Direction KTS MPH feet Rate Location/Type
01:45PM 35.0333 -89.9667 248° West 148 170 1,100  Level KMEM
01:46PM 35.0167 -90.0167 248° West 194 223 2,900 3,120 Climbing KMEM
01:47PM 35.0167 -90.0833 270° West 233 268 6,400 2,040 Climbing KMEM
01:48PM 35.0167 -90.1667 270° West 246 283 7,000 1,740 Climbing KMEM
01:49PM 35.0333 -90.2500 284° West 251 289 9,900 3,300 Climbing KMEM
01:50PM 35.1000 -90.2500 360° North 300 345 13,600 3,060 Climbing KMEM
01:50PM 35.1428 -90.2122 36° Northeast 342 394 14,500 1,560 Climbing Memphis Center
01:51PM 35.2094 -90.1208 48° Northeast 524 603 16,000 1,680 Climbing Memphis Center
01:52PM 35.2886 -90.0136 48° Northeast 447 514 17,900 2,280 Climbing Memphis Center
01:53PM 35.3633 -89.9142 47° Northeast 432 497 20,600 2,460 Climbing Memphis Center
01:54PM 35.4483 -89.7964 48° Northeast 446 513 22,900 2,340 Climbing Memphis Center
01:55PM 35.5394 -89.6733 48° Northeast 466 536 25,300 2,160 Climbing Memphis Center
01:56PM 35.6347 -89.5472 47° Northeast 488 562 27,300 1,800 Climbing Memphis Center
01:57PM 35.7528 -89.4336 38° Northeast 493 567 28,900 1,980 Climbing Memphis Center
01:58PM 35.8811 -89.3400 31° Northeast 504 580 31,300 1,260 Climbing Memphis Center
02:05PM 36.6520 -88.7600 31° Northeast 532 612 38,200 1,080 Climbing FlightAware
02:05PM 36.7360 -88.6960 31° Northeast 534 615 39,000 540 Climbing FlightAware
02:06PM 36.8280 -88.6240 32° Northeast 536 617 39,000  Level FlightAware
02:07PM 36.9160 -88.5560 32° Northeast 535 616 39,000  Level FlightAware
02:08PM 37.0270 -88.4710 31° Northeast 538 619 39,000  Level FlightAware
02:08PM 37.1180 -88.4030 31° Northeast 538 619 39,000  Level FlightAware
02:09PM 37.2120 -88.3270 33° Northeast 540 621 39,000  Level FlightAware
02:10PM 37.3000 -88.2590 32° Northeast 541 623 39,000  Level FlightAware
02:10PM 37.3960 -88.1830 32° Northeast 540 621 39,000  Level FlightAware
02:11PM 37.4790 -88.1180 32° Northeast 539 620 39,000  Level FlightAware
02:12PM 37.5660 -88.0500 32° Northeast 535 616 39,000  Level FlightAware
02:12PM 37.6580 -87.9770 32° Northeast 531 611 39,000  Level FlightAware
02:13PM 37.7420 -87.9110 32° Northeast 529 609 39,000  Level FlightAware
02:14PM 37.8330 -87.8390 32° Northeast 526 605 39,000  Level FlightAware
02:15PM 37.9160 -87.7660 35° Northeast 529 609 39,000  Level FlightAware
02:15PM 37.9910 -87.6660 46° Northeast 533 613 39,000  Level FlightAware
02:16PM 38.0520 -87.5700 51° Northeast 531 611 39,000  Level FlightAware
02:17PM 38.1150 -87.4730 50° Northeast 529 609 39,000  Level FlightAware
02:17PM 38.1850 -87.3610 51° Northeast 527 606 39,000  Level FlightAware
02:18PM 38.2460 -87.2650 51° Northeast 526 605 39,000  Level FlightAware
02:19PM 38.3040 -87.1730 51° Northeast 526 605 39,000  Level FlightAware
02:19PM 38.3750 -87.0590 52° Northeast 527 606 39,000  Level FlightAware
02:20PM 38.4340 -86.9640 52° Northeast 527 606 39,000  Level FlightAware
02:21PM 38.5020 -86.8580 51° Northeast 526 605 39,000  Level FlightAware
02:21PM 38.5410 -86.7940 52° Northeast 525 604 39,000  Level FlightAware
02:22PM 38.5980 -86.7020 52° Northeast 525 604 39,000  Level FlightAware
02:23PM 38.6680 -86.5900 51° Northeast 524 603 39,000  Level FlightAware
02:23PM 38.7280 -86.4930 52° Northeast 526 605 39,000  Level FlightAware
02:24PM 38.7880 -86.3950 52° Northeast 527 606 39,000  Level FlightAware
02:25PM 38.8560 -86.2840 52° Northeast 529 609 39,000  Level FlightAware
02:25PM 38.9140 -86.1900 52° Northeast 530 610 39,000  Level FlightAware
02:26PM 38.9860 -86.0710 52° Northeast 530 610 39,000  Level FlightAware
02:27PM 39.0470 -85.9710 52° Northeast 530 610 39,000  Level FlightAware
02:28PM 39.1140 -85.8590 52° Northeast 530 610 39,000  Level FlightAware
02:28PM 39.1720 -85.7640 52° Northeast 529 609 39,000  Level FlightAware
02:29PM 39.2310 -85.6650 52° Northeast 530 610 39,000  Level FlightAware
02:30PM 39.2900 -85.5670 52° Northeast 530 610 39,000  Level FlightAware
02:30PM 39.3530 -85.4630 52° Northeast 530 610 39,000  Level FlightAware
02:31PM 39.4050 -85.3780 52° Northeast 530 610 39,000  Level FlightAware
02:32PM 39.4560 -85.2930 52° Northeast 530 610 39,000  Level FlightAware
02:33PM 39.5730 -85.1360 46° Northeast 532 612 39,000  Level FlightAware
02:33PM 39.6210 -85.0630 50° Northeast 532 612 39,000  Level FlightAware
02:34PM 39.6810 -84.9740 49° Northeast 533 613 39,000  Level FlightAware
02:35PM 39.7740 -84.8350 49° Northeast 534 615 39,000  Level FlightAware
02:35PM 39.8480 -84.7210 50° Northeast 534 615 39,000  Level FlightAware
02:36PM 39.9340 -84.5880 50° Northeast 534 615 39,000  Level FlightAware
02:37PM 39.9940 -84.4970 49° Northeast 534 615 39,000  Level FlightAware
02:38PM 40.0730 -84.3770 49° Northeast 535 616 39,000  Level FlightAware
02:38PM 40.1310 -84.2880 50° Northeast 535 616 39,000  Level FlightAware
02:39PM 40.1950 -84.1870 50° Northeast 535 616 39,000  Level FlightAware
02:40PM 40.2680 -84.0750 49° Northeast 536 617 39,000  Level FlightAware
02:40PM 40.3330 -83.9690 51° Northeast 538 619 39,000  Level FlightAware
02:41PM 40.4020 -83.8490 53° Northeast 539 620 39,000  Level FlightAware
02:42PM 40.4620 -83.7450 53° Northeast 538 619 39,000  Level FlightAware
02:43PM 40.5210 -83.6430 53° Northeast 539 620 39,000  Level FlightAware
02:43PM 40.5820 -83.5390 52° Northeast 539 620 39,000  Level FlightAware
02:44PM 40.6470 -83.4200 54° Northeast 542 624 39,000  Level FlightAware
02:45PM 40.7020 -83.2900 61° Northeast 546 628 39,000  Level FlightAware
02:45PM 40.7420 -83.1640 67° East 547 629 39,000  Level FlightAware
02:46PM 40.7790 -83.0430 68° East 547 629 39,000  Level FlightAware
02:47PM 40.8200 -82.9030 69° East 547 629 39,000  Level FlightAware
02:47PM 40.8540 -82.7880 69° East 546 628 39,000  Level FlightAware
02:48PM 40.8970 -82.6390 69° East 546 628 39,000  Level FlightAware
02:49PM 40.9330 -82.5140 69° East 547 629 39,000  Level FlightAware
02:50PM 40.9700 -82.3860 69° East 547 629 39,000  Level FlightAware
02:50PM 41.0120 -82.2490 68° East 546 628 39,000  Level FlightAware
02:51PM 41.0500 -82.1250 68° East 547 629 39,000  Level FlightAware
02:52PM 41.0910 -81.9850 69° East 546 628 39,000  Level FlightAware
02:52PM 41.1240 -81.8770 68° East 545 627 39,000  Level FlightAware
02:53PM 41.1650 -81.7400 68° East 544 626 39,000  Level FlightAware
02:54PM 41.2020 -81.6130 69° East 544 626 39,000  Level FlightAware
02:54PM 41.2430 -81.4730 69° East 541 623 39,000  Level FlightAware
02:55PM 41.2830 -81.3370 69° East 541 623 39,000  Level FlightAware
02:56PM 41.3220 -81.2070 68° East 541 623 39,000  Level FlightAware
02:56PM 41.3520 -81.1010 69° East 540 621 39,000  Level FlightAware
02:57PM 41.3970 -80.9460 69° East 540 621 39,000  Level FlightAware
02:58PM 41.4320 -80.8220 69° East 541 623 39,000  Level FlightAware
02:59PM 41.4720 -80.6850 69° East 540 621 39,000  Level FlightAware
02:59PM 41.5060 -80.5640 69° East 541 623 39,000  Level FlightAware
03:00PM 41.5420 -80.4350 70° East 543 625 39,000  Level FlightAware
03:01PM 41.5830 -80.2910 69° East 544 626 39,000  Level FlightAware
03:01PM 41.6160 -80.1720 70° East 543 625 39,000  Level FlightAware
03:02PM 41.6530 -80.0390 70° East 543 625 39,000  Level FlightAware
03:03PM 41.6920 -79.8980 70° East 543 625 39,000  Level FlightAware
03:04PM 41.7270 -79.7680 70° East 544 626 39,000  Level FlightAware
03:04PM 41.7419 -79.7178 70° East 532 612 39,000  Level Cleveland Center
03:05PM 41.7886 -79.5472 70° East 532 612 39,000  Level Cleveland Center
03:06PM 41.8408 -79.3539 70° East 532 612 39,000  Level Cleveland Center
03:07PM 41.8928 -79.1633 70° East 532 612 39,000  Level Cleveland Center
03:08PM 41.9425 -78.9725 71° East 532 612 39,000  Level Cleveland Center
03:09PM 41.9939 -78.7811 70° East 532 612 39,000  Level Cleveland Center
03:10PM 42.0447 -78.5894 70° East 532 612 39,000  Level Cleveland Center
03:11PM 42.0933 -78.3950 71° East 537 618 39,000  Level Cleveland Center
03:12PM 42.1439 -78.2056 70° East 537 618 39,000  Level Cleveland Center
03:13PM 42.1958 -78.0103 70° East 542 624 39,000  Level Cleveland Center
03:14PM 42.2417 -77.8233 72° East 542 624 39,000  Level Cleveland Center
03:15PM 42.2889 -77.6303 72° East 537 618 39,000  Level Cleveland Center
03:16PM 42.3439 -77.4225 70° East 532 612 39,000  Level Cleveland Center
03:17PM 42.3886 -77.2319 72° East 532 612 39,000  Level Cleveland Center
03:18PM 42.4350 -77.0411 72° East 532 612 39,000  Level Cleveland Center
03:19PM 42.4586 -76.8450 81° East 554 638 39,000  Level Boston Center
03:20PM 42.4831 -76.6411 81° East 554 638 39,000  Level Boston Center
03:21PM 42.5064 -76.4003 82° East 549 632 39,000  Level Boston Center
03:22PM 42.5428 -76.1856 77° East 537 618 39,000  Level Boston Center
03:23PM 42.5989 -76.0000 68° East 517 595 39,000  Level Boston Center
03:24PM 42.6625 -75.8258 64° Northeast 517 595 39,000  Level Boston Center
03:25PM 42.7242 -75.6481 65° Northeast 517 595 39,000  Level Boston Center
03:26PM 42.7875 -75.4675 64° Northeast 517 595 39,000  Level Boston Center
03:32PM 43.1340 -74.4690 64° Northeast 500 575 39,000  Level FlightAware
03:33PM 43.1770 -74.3390 66° East 498 573 39,000  Level FlightAware
03:34PM 43.2320 -74.1780 65° Northeast 500 575 39,000  Level FlightAware
03:34PM 43.2710 -74.0600 66° East 501 577 39,000  Level FlightAware
03:35PM 43.3160 -73.9270 65° Northeast 503 579 39,000  Level FlightAware
03:36PM 43.3540 -73.8100 66° East 505 581 39,000  Level FlightAware
03:36PM 43.3960 -73.6850 65° Northeast 505 581 39,000  Level FlightAware
03:37PM 43.4320 -73.5760 66° East 506 582 39,000  Level FlightAware
03:38PM 43.4780 -73.4320 66° East 508 585 39,000  Level FlightAware
03:39PM 43.5170 -73.3140 65° Northeast 508 585 39,000  Level FlightAware
03:39PM 43.5520 -73.2050 66° East 507 583 39,000  Level FlightAware
03:40PM 43.5990 -73.0600 66° East 507 583 39,000  Level FlightAware
03:41PM 43.6410 -72.9300 66° East 507 583 39,000  Level FlightAware
03:41PM 43.6790 -72.8120 66° East 506 582 39,000  Level FlightAware
03:42PM 43.7160 -72.6930 67° East 506 582 39,000  Level FlightAware
03:43PM 43.7600 -72.5540 66° East 504 580 39,000  Level FlightAware
03:43PM 43.7960 -72.4390 67° East 504 580 39,000  Level FlightAware
03:44PM 43.8340 -72.3210 66° East 504 580 39,000  Level FlightAware
03:45PM 43.8740 -72.1910 67° East 503 579 39,000  Level FlightAware
03:46PM 43.9160 -72.0550 67° East 500 575 39,000  Level FlightAware
03:46PM 43.9540 -71.9350 66° East 500 575 39,000  Level FlightAware
03:47PM 43.9890 -71.8200 67° East 497 572 39,000  Level FlightAware
03:48PM 44.0280 -71.6910 67° East 496 571 39,000  Level FlightAware
03:48PM 44.0640 -71.5740 67° East 494 568 39,000  Level FlightAware
03:49PM 44.1000 -71.4570 67° East 492 566 39,000  Level FlightAware
03:50PM 44.1400 -71.3230 67° East 490 564 39,000 -300 Level FlightAware
03:50PM 44.1760 -71.2040 67° East 488 562 38,600 -1,680 Descending FlightAware
03:51PM 44.2140 -71.0760 67° East 492 566 36,700 -2,700 Descending FlightAware
03:52PM 44.2480 -70.9610 68° East 495 570 34,800 -3,120 Descending FlightAware
03:53PM 44.2820 -70.8480 67° East 501 577 32,600 -3,600 Descending FlightAware
03:53PM 44.3250 -70.7010 68° East 506 582 29,700 -3,900 Descending FlightAware
03:54PM 44.3590 -70.5860 67° East 505 581 27,100 -3,600 Descending FlightAware
03:55PM 44.3980 -70.4490 68° East 489 563 24,600 -3,180 Descending FlightAware
03:56PM 44.4390 -70.3110 67° East 471 542 22,100 -1,620 Descending FlightAware
03:56PM 44.4740 -70.1970 67° East 471 542 22,100  Level FlightAware
03:57PM 44.5020 -70.1010 68° East 471 542 22,100  Level FlightAware
03:58PM 44.5310 -70.0050 67° East 471 542 22,100  Level FlightAware
03:58PM 44.5600 -69.9100 67° East 471 542 22,100  Level FlightAware
03:59PM 44.5960 -69.7900 67° East 471 542 22,100 -5,400 Level FlightAware
04:00PM 44.6325 -69.5986 67° East 377 434 11,000 -5,460 Descending Boston Center
04:01PM 44.6861 -69.4881 56° Northeast 362 417 10,000 -1,020 Descending Boston Center
04:02PM 44.7317 -69.3981 55° Northeast 320 368 9,000 -1,140 Descending Boston Center
04:08PM 44.8960 -68.9560 55° Northeast 177 204 2,400 -1,080 Descending FlightAware
04:09PM 44.8770 -68.9310 137° Southeast 171 197 2,200 -840 Descending FlightAware
04:10PM 44.8460 -68.8840 133° Southeast 127 146 1,000 -960 Descending FlightAware
04:10PM 44.8353 -68.8714 133° Southeast 148 170 700 -540 Descending Boston Center
04:11PM 44.8158 -68.8433 134° Southeast 135 155 200 5,100 Descending Boston Center
04:12PM 44.7853 -68.8044 138° Southeast 135 155 11,000 10,800 Climbing Boston Center
04:14PM 44.8074 -68.8281 323° Northwest  Level Estimated